Time;durP1;ratioP1;P1;durP2;ratioP2;P2;SDS_P1;SDS_P2;PMS_P1;PMS_P2;Temp;Humidity;BMP_temperature;BMP_pressure;BME280_temperature;BME280_humidity;BME280_pressure;Samples;Min_cycle;Max_cycle;Signal;HPM_P1;HPM_P2
2023/09/22 00:00:57;;;;;;;0.40;0.30;;;13.60;99.90;;;;;;5107621;27;20395;-73
2023/09/22 00:03:23;;;;;;;0.45;0.30;;;13.80;99.90;;;;;;5115746;27;20052;-75
2023/09/22 00:05:52;;;;;;;0.50;0.40;;;13.60;99.90;;;;;;5094051;28;20040;-74
2023/09/22 00:08:18;;;;;;;0.28;0.22;;;13.80;99.90;;;;;;5126320;27;20099;-73
2023/09/22 00:10:44;;;;;;;;;;;13.90;99.90;;;;;;5107519;27;20504;-73
2023/09/22 00:13:10;;;;;;;0.20;0.20;;;13.80;99.90;;;;;;5095334;27;20019;-74
2023/09/22 00:15:36;;;;;;;;;;;13.70;99.90;;;;;;5114294;27;20118;-74
2023/09/22 00:18:01;;;;;;;0.40;0.40;;;13.70;99.90;;;;;;5122238;27;20083;-73
2023/09/22 00:20:27;;;;;;;0.98;0.40;;;14.00;99.90;;;;;;5087296;28;20039;-74
2023/09/22 00:22:53;;;;;;;0.28;0.28;;;13.80;99.90;;;;;;5108615;28;20047;-74
2023/09/22 00:25:19;;;;;;;0.32;0.32;;;14.00;99.90;;;;;;5105358;27;20055;-75
2023/09/22 00:27:45;;;;;;;0.75;0.50;;;13.70;99.90;;;;;;5126819;27;20042;-74
2023/09/22 00:30:10;;;;;;;0.30;0.30;;;13.80;99.90;;;;;;5121710;27;20409;-75
2023/09/22 00:32:38;;;;;;;0.90;0.60;;;13.80;99.90;;;;;;5107375;27;20551;-75
2023/09/22 00:35:06;;;;;;;0.45;0.45;;;13.90;99.90;;;;;;5118861;27;20075;-75
2023/09/22 00:37:33;;;;;;;0.50;0.50;;;14.00;99.90;;;;;;5102535;28;20043;-75
2023/09/22 00:39:59;;;;;;;0.73;0.60;;;13.80;99.90;;;;;;5099250;27;20050;-74
2023/09/22 00:42:24;;;;;;;0.93;0.60;;;13.80;99.90;;;;;;5106580;27;20066;-74
2023/09/22 00:44:50;;;;;;;0.50;0.45;;;13.90;99.90;;;;;;5095493;27;20043;-74
2023/09/22 00:47:17;;;;;;;0.52;0.52;;;14.10;99.90;;;;;;5108126;28;20551;-74
2023/09/22 00:49:45;;;;;;;0.47;0.47;;;13.80;99.90;;;;;;5093536;28;20032;-74
2023/09/22 00:52:11;;;;;;;0.65;0.65;;;13.80;99.90;;;;;;5093527;28;20048;-74
2023/09/22 00:54:37;;;;;;;0.77;0.70;;;14.00;99.90;;;;;;5118941;27;20104;-73
2023/09/22 00:57:04;;;;;;;0.70;0.70;;;14.00;99.90;;;;;;5076391;28;20055;-74
2023/09/22 00:59:31;;;;;;;0.90;0.80;;;14.10;99.90;;;;;;5098927;27;20167;-74
2023/09/22 01:01:57;;;;;;;1.20;1.00;;;13.90;99.90;;;;;;5098359;28;20047;-74
2023/09/22 01:04:23;;;;;;;1.38;1.20;;;13.90;99.90;;;;;;5093466;28;20039;-74
2023/09/22 01:06:49;;;;;;;1.25;1.10;;;13.90;99.90;;;;;;5093526;28;20043;-74
2023/09/22 01:09:15;;;;;;;;;;;14.30;99.90;;;;;;5076876;28;20097;-74
2023/09/22 01:11:41;;;;;;;1.50;1.15;;;13.80;99.90;;;;;;5102123;28;19920;-74
2023/09/22 01:14:07;;;;;;;1.38;1.20;;;13.80;99.90;;;;;;5076317;28;20043;-74
2023/09/22 01:16:33;;;;;;;2.00;1.63;;;13.80;99.90;;;;;;5093334;28;20036;-74
2023/09/22 01:18:59;;;;;;;1.75;1.17;;;13.80;99.90;;;;;;5093373;28;20371;-74
2023/09/22 01:21:29;;;;;;;;;;;13.80;99.90;;;;;;5093663;28;20422;-74
2023/09/22 01:23:55;;;;;;;1.70;1.40;;;13.80;99.90;;;;;;5100735;27;20011;-74
2023/09/22 01:26:23;;;;;;;2.20;1.90;;;14.20;99.90;;;;;;5126313;27;20047;-74
2023/09/22 01:28:49;;;;;;;1.98;1.77;;;14.20;99.90;;;;;;5100029;28;20470;-74
2023/09/22 01:31:16;;;;;;;1.83;1.67;;;14.20;99.90;;;;;;5095069;28;20410;-74
2023/09/22 01:33:42;;;;;;;2.13;1.90;;;14.30;99.90;;;;;;5099556;28;20047;-74
2023/09/22 01:36:08;;;;;;;1.90;1.67;;;14.20;99.90;;;;;;5107642;28;20047;-74
2023/09/22 01:38:33;;;;;;;2.35;2.10;;;14.20;99.90;;;;;;5105367;28;20044;-74
2023/09/22 01:40:59;;;;;;;2.40;2.00;;;14.00;99.90;;;;;;5127561;28;20079;-74
2023/09/22 01:43:25;;;;;;;2.45;2.15;;;13.90;99.90;;;;;;5109073;28;20047;-74
2023/09/22 01:45:51;;;;;;;2.78;2.47;;;13.80;99.90;;;;;;5104222;28;20406;-74
2023/09/22 01:48:16;;;;;;;3.42;2.83;;;14.00;99.90;;;;;;5102641;28;20043;-75
2023/09/22 01:50:42;;;;;;;2.53;2.28;;;13.80;99.90;;;;;;5076107;28;20056;-75
2023/09/22 01:53:10;;;;;;;3.17;2.45;;;14.10;99.90;;;;;;5088632;28;20035;-74
2023/09/22 01:55:40;;;;;;;3.63;2.83;;;14.20;99.90;;;;;;5094026;28;20039;-74
2023/09/22 01:58:10;;;;;;;2.60;2.40;;;14.30;99.90;;;;;;5098338;28;20675;-74
2023/09/22 02:00:36;;;;;;;2.67;2.17;;;14.30;99.90;;;;;;5091345;28;20181;-74
2023/09/22 02:03:03;;;;;;;2.53;2.33;;;14.30;99.90;;;;;;5104914;28;20051;-75
2023/09/22 02:05:29;;;;;;;3.25;2.40;;;14.00;99.90;;;;;;5092722;28;20047;-74
2023/09/22 02:07:57;;;;;;;3.00;2.70;;;14.40;99.90;;;;;;5092785;28;20047;-74
2023/09/22 02:10:23;;;;;;;3.90;3.40;;;14.40;99.90;;;;;;5092407;28;20104;-74
2023/09/22 02:12:48;;;;;;;;;;;14.40;99.90;;;;;;5092943;28;20154;-74
2023/09/22 02:15:14;;;;;;;3.63;2.90;;;14.10;99.90;;;;;;5092377;27;20019;-75
2023/09/22 02:17:44;;;;;;;3.60;3.30;;;14.40;99.90;;;;;;5093800;27;20097;-74
2023/09/22 02:20:22;;;;;;;3.67;3.35;;;14.00;99.90;;;;;;5099113;28;20791;-74
2023/09/22 02:22:49;;;;;;;5.07;4.57;;;14.50;99.90;;;;;;5096311;28;20082;-74
2023/09/22 02:25:16;;;;;;;5.22;4.50;;;13.90;99.90;;;;;;5096376;27;20687;-75
2023/09/22 02:27:43;;;;;;;6.00;4.90;;;14.10;99.90;;;;;;5095934;28;20055;-74
2023/09/22 02:30:10;;;;;;;5.43;4.70;;;14.00;99.90;;;;;;5096486;28;20553;-74
2023/09/22 02:32:38;;;;;;;4.60;3.92;;;14.30;99.90;;;;;;5096062;28;20050;-74
2023/09/22 02:35:04;;;;;;;4.30;3.90;;;14.40;99.90;;;;;;5100475;27;20088;-74
2023/09/22 02:37:30;;;;;;;;;;;14.50;99.90;;;;;;5099614;28;20035;-75
2023/09/22 02:39:55;;;;;;;4.13;3.72;;;14.00;99.90;;;;;;5096145;28;20342;-74
2023/09/22 02:42:21;;;;;;;4.65;4.18;;;14.50;99.90;;;;;;5099873;27;20038;-73
2023/09/22 02:44:47;;;;;;;5.22;4.72;;;14.10;99.90;;;;;;5102854;28;20549;-73
2023/09/22 02:47:14;;;;;;;3.78;3.42;;;14.40;99.90;;;;;;5101175;27;20048;-73
2023/09/22 02:49:40;;;;;;;5.75;5.15;;;14.30;99.90;;;;;;5103830;27;20122;-73
2023/09/22 02:52:06;;;;;;;4.90;4.40;;;14.10;99.90;;;;;;5111441;27;20488;-74
2023/09/22 02:54:32;;;;;;;5.30;4.80;;;14.40;99.90;;;;;;5113733;27;20480;-73
2023/09/22 02:56:58;;;;;;;5.60;4.78;;;14.60;99.90;;;;;;5106387;28;20055;-73
2023/09/22 02:59:23;;;;;;;5.07;4.57;;;14.20;99.90;;;;;;5109456;27;20043;-74
2023/09/22 03:01:49;;;;;;;5.28;4.78;;;14.60;99.90;;;;;;5095665;28;20039;-74
2023/09/22 03:04:15;;;;;;;7.82;6.60;;;14.30;99.90;;;;;;5095672;28;20047;-73
2023/09/22 03:06:41;;;;;;;6.38;5.78;;;14.30;99.90;;;;;;5106474;28;20347;-73
2023/09/22 03:09:07;;;;;;;7.28;6.38;;;14.50;99.90;;;;;;5115373;27;20039;-73
2023/09/22 03:11:33;;;;;;;5.80;5.20;;;14.20;99.90;;;;;;5104715;27;20039;-73
2023/09/22 03:13:59;;;;;;;;;;;14.40;99.90;;;;;;5087218;27;20051;-73
2023/09/22 03:16:27;;;;;;;5.55;5.05;;;14.20;99.90;;;;;;5083727;27;20298;-73
2023/09/22 03:18:53;;;;;;;5.57;4.95;;;14.40;99.90;;;;;;5078270;28;20477;-73
2023/09/22 03:21:22;;;;;;;5.40;4.78;;;14.00;99.90;;;;;;5095364;28;20132;-74
2023/09/22 03:23:49;;;;;;;5.18;4.68;;;14.00;99.90;;;;;;5096923;28;20545;-73
2023/09/22 03:26:15;;;;;;;4.97;4.47;;;14.30;99.90;;;;;;5100789;27;20047;-73
2023/09/22 03:28:41;;;;;;;5.00;4.50;;;14.30;99.90;;;;;;5100789;27;20485;-73
2023/09/22 03:31:07;;;;;;;5.00;4.20;;;14.00;99.90;;;;;;5077559;28;20084;-74
2023/09/22 03:33:33;;;;;;;4.85;3.92;;;14.40;99.90;;;;;;5095780;27;20048;-74
2023/09/22 03:35:59;;;;;;;4.15;3.75;;;13.90;99.90;;;;;;5090800;28;20382;-74
2023/09/22 03:38:25;;;;;;;;;;;13.90;99.90;;;;;;5095389;28;20124;-74
2023/09/22 03:40:54;;;;;;;4.63;4.07;;;13.80;99.90;;;;;;5078057;28;19916;-74
2023/09/22 03:43:19;;;;;;;5.57;4.68;;;14.30;99.90;;;;;;5102886;27;20050;-74
2023/09/22 03:45:45;;;;;;;4.90;4.35;;;13.90;99.90;;;;;;5098773;27;20062;-74
2023/09/22 03:48:11;;;;;;;5.60;4.60;;;14.20;99.90;;;;;;5104671;27;20071;-74
2023/09/22 03:50:36;;;;;;;4.95;4.38;;;13.80;99.90;;;;;;5082192;28;20473;-74
2023/09/22 03:53:02;;;;;;;5.50;4.50;;;13.80;99.90;;;;;;5100661;27;20476;-74
2023/09/22 03:55:28;;;;;;;4.80;4.20;;;13.70;99.90;;;;;;5111163;27;20091;-74
2023/09/22 03:57:54;;;;;;;5.07;4.47;;;13.80;99.90;;;;;;5102272;28;20059;-73
2023/09/22 04:00:27;;;;;;;5.30;4.38;;;13.60;99.90;;;;;;5106142;27;20038;-73
2023/09/22 04:02:53;;;;;;;4.45;3.88;;;14.00;99.90;;;;;;5097637;27;20054;-73
2023/09/22 04:05:18;;;;;;;4.20;3.72;;;14.00;99.90;;;;;;5126520;27;20550;-73
2023/09/22 04:07:44;;;;;;;4.38;3.85;;;13.80;99.90;;;;;;5102861;27;20156;-73
2023/09/22 04:10:10;;;;;;;4.18;3.60;;;14.00;99.90;;;;;;5077060;28;20040;-73
2023/09/22 04:12:36;;;;;;;4.28;3.88;;;13.90;99.90;;;;;;5077108;28;20066;-74
2023/09/22 04:15:04;;;;;;;;;;;14.00;99.90;;;;;;5094330;28;20031;-73
2023/09/22 04:17:31;;;;;;;;;;;13.90;99.90;;;;;;5102704;27;19916;-73
2023/09/22 04:19:57;;;;;;;3.50;3.20;;;13.50;99.90;;;;;;5098350;28;19919;-73
2023/09/22 04:22:23;;;;;;;4.03;3.40;;;13.60;99.90;;;;;;5084653;27;20038;-73
2023/09/22 04:24:51;;;;;;;4.18;3.50;;;13.90;99.90;;;;;;5083643;28;20039;-73
2023/09/22 04:27:16;;;;;;;4.40;3.97;;;13.50;99.90;;;;;;5093451;28;20046;-73
2023/09/22 04:29:42;;;;;;;4.30;3.63;;;13.90;99.90;;;;;;5093866;28;20027;-73
2023/09/22 04:32:08;;;;;;;4.10;3.70;;;13.90;99.90;;;;;;5093550;28;20540;-73
2023/09/22 04:34:35;;;;;;;4.63;3.80;;;13.60;99.90;;;;;;5102678;27;20393;-73
2023/09/22 04:37:04;;;;;;;6.35;4.82;;;13.50;99.90;;;;;;5097305;27;20054;-73
2023/09/22 04:39:31;;;;;;;6.53;5.70;;;13.40;99.90;;;;;;5093712;28;20055;-74
2023/09/22 04:41:58;;;;;;;6.28;5.43;;;13.50;99.90;;;;;;5122595;27;20053;-74
2023/09/22 04:44:24;;;;;;;7.47;6.30;;;13.90;99.90;;;;;;5092358;28;20074;-74
2023/09/22 04:46:49;;;;;;;6.65;5.85;;;13.90;99.90;;;;;;5110446;28;20088;-74
2023/09/22 04:49:15;;;;;;;7.22;5.03;;;13.50;99.90;;;;;;5080307;27;20042;-73
2023/09/22 04:51:42;;;;;;;5.32;4.47;;;13.50;99.90;;;;;;5113739;27;20087;-74
2023/09/22 04:54:07;;;;;;;5.13;4.25;;;13.90;99.90;;;;;;5096073;27;20180;-74
2023/09/22 04:56:33;;;;;;;5.72;4.63;;;13.60;99.90;;;;;;5101639;28;20126;-74
2023/09/22 04:59:00;;;;;;;5.25;4.32;;;14.10;99.90;;;;;;5103740;27;20039;-74
2023/09/22 05:01:27;;;;;;;7.00;5.60;;;13.60;99.90;;;;;;5105479;27;20051;-74
2023/09/22 05:03:54;;;;;;;11.23;7.15;;;13.50;99.90;;;;;;5110190;27;20053;-75
2023/09/22 05:06:19;;;;;;;;;;;13.60;99.90;;;;;;5095958;27;20035;-74
2023/09/22 05:08:45;;;;;;;9.05;7.13;;;14.10;99.90;;;;;;5104740;27;19920;-76
2023/09/22 05:11:11;;;;;;;7.93;6.85;;;13.60;99.90;;;;;;5088932;27;20070;-75
2023/09/22 05:13:36;;;;;;;8.43;7.00;;;13.60;99.90;;;;;;5108068;28;20054;-75
2023/09/22 05:16:10;;;;;;;9.30;7.13;;;13.90;99.90;;;;;;5093117;28;20048;-75
2023/09/22 05:18:36;;;;;;;11.32;9.02;;;13.70;99.90;;;;;;5108711;28;20043;-73
2023/09/22 05:21:02;;;;;;;9.93;8.10;;;13.50;99.90;;;;;;5090771;28;20397;-75
2023/09/22 05:23:34;;;;;;;;;;;13.90;99.90;;;;;;5104206;27;20040;-75
2023/09/22 05:26:04;;;;;;;9.63;7.72;;;13.50;99.90;;;;;;5090143;28;19916;-75
2023/09/22 05:28:30;;;;;;;8.38;7.28;;;13.80;99.90;;;;;;5075869;28;20423;-75
2023/09/22 05:30:57;;;;;;;9.68;7.63;;;13.40;99.90;;;;;;5089494;28;20165;-75
2023/09/22 05:33:24;;;;;;;8.23;6.53;;;13.30;99.90;;;;;;5078101;28;20136;-74
2023/09/22 05:35:50;;;;;;;8.95;7.30;;;13.50;99.90;;;;;;5100947;28;20046;-74
2023/09/22 05:38:16;;;;;;;9.75;7.50;;;13.50;99.90;;;;;;5077196;28;20457;-74
2023/09/22 05:40:45;;;;;;;8.63;6.50;;;13.20;99.90;;;;;;5088595;28;20119;-74
2023/09/22 05:43:13;;;;;;;8.95;6.95;;;13.50;99.90;;;;;;5079560;28;20479;-74
2023/09/22 05:45:43;;;;;;;8.25;6.30;;;13.40;99.90;;;;;;5089243;28;20064;-74
2023/09/22 05:48:09;;;;;;;7.03;6.05;;;13.50;99.90;;;;;;5073092;28;20399;-74
2023/09/22 05:50:35;;;;;;;7.10;5.70;;;13.20;99.90;;;;;;5089140;28;20047;-74
2023/09/22 05:53:02;;;;;;;;;;;13.60;99.90;;;;;;5089354;28;20132;-74
2023/09/22 05:55:28;;;;;;;5.78;4.70;;;13.20;99.90;;;;;;5091058;28;20333;-74
2023/09/22 05:57:54;;;;;;;7.68;6.28;;;13.50;99.90;;;;;;5076303;28;20120;-74
2023/09/22 06:00:25;;;;;;;5.65;4.97;;;13.10;99.90;;;;;;5090376;28;20044;-74
2023/09/22 06:02:52;;;;;;;6.72;5.03;;;13.40;99.90;;;;;;5092965;28;20503;-74
2023/09/22 06:05:25;;;;;;;6.60;5.38;;;13.60;99.90;;;;;;5095123;28;20122;-73
2023/09/22 06:07:55;;;;;;;6.50;5.00;;;13.20;99.90;;;;;;5092551;28;20522;-74
2023/09/22 06:10:22;;;;;;;7.22;5.65;;;13.50;99.90;;;;;;5099147;28;20047;-74
2023/09/22 06:12:49;;;;;;;8.00;6.10;;;13.30;99.90;;;;;;5107920;28;20047;-73
2023/09/22 06:15:15;;;;;;;7.90;6.38;;;13.20;99.90;;;;;;5112537;27;20051;-74
2023/09/22 06:17:41;;;;;;;12.57;8.68;;;13.60;99.90;;;;;;5111224;27;20085;-74
2023/09/22 06:20:15;;;;;;;11.55;9.15;;;13.30;99.90;;;;;;5107052;28;20514;-74
2023/09/22 06:22:47;;;;;;;10.88;8.57;;;13.50;99.90;;;;;;5091047;28;20051;-74
2023/09/22 06:25:13;;;;;;;10.13;7.80;;;13.20;99.90;;;;;;5110711;27;20047;-74
2023/09/22 06:27:39;;;;;;;;;;;13.60;99.90;;;;;;5109171;27;20040;-74
2023/09/22 06:30:10;;;;;;;12.27;9.25;;;13.30;99.90;;;;;;5114774;27;20616;-74
2023/09/22 06:32:42;;;;;;;10.55;7.97;;;13.20;99.90;;;;;;5105326;27;20505;-74
2023/09/22 06:35:10;;;;;;;11.85;8.60;;;13.60;99.90;;;;;;5084772;28;20038;-75
2023/09/22 06:37:37;;;;;;;9.32;7.00;;;13.20;99.90;;;;;;5107447;27;20052;-74
2023/09/22 06:40:10;;;;;;;9.68;7.20;;;13.30;99.90;;;;;;5105100;27;20139;-75
2023/09/22 06:42:44;;;;;;;7.85;6.20;;;13.60;99.90;;;;;;5114941;27;20049;-74
2023/09/22 06:45:10;;;;;;;9.20;7.15;;;13.50;99.90;;;;;;5121309;27;20129;-74
2023/09/22 06:47:41;;;;;;;9.73;7.32;;;13.70;99.90;;;;;;5102459;27;20050;-74
2023/09/22 06:50:08;;;;;;;7.68;5.88;;;13.20;99.90;;;;;;5100034;28;20119;-74
2023/09/22 06:52:40;;;;;;;7.18;5.50;;;13.30;99.90;;;;;;5087071;28;20063;-74
2023/09/22 06:55:13;;;;;;;8.13;5.70;;;13.30;99.90;;;;;;5112380;27;20048;-74
2023/09/22 06:57:42;;;;;;;10.40;7.68;;;13.70;99.90;;;;;;5106130;27;20043;-74
2023/09/22 07:00:16;;;;;;;10.20;7.60;;;13.40;99.90;;;;;;5096993;28;20040;-74
2023/09/22 07:02:48;;;;;;;11.38;8.25;;;13.70;99.90;;;;;;5099313;28;20173;-74
2023/09/22 07:05:14;;;;;;;9.25;6.95;;;13.70;99.90;;;;;;5109683;27;20039;-74
2023/09/22 07:07:40;;;;;;;9.57;7.60;;;13.90;99.90;;;;;;5104360;27;20044;-76
2023/09/22 07:10:10;;;;;;;10.48;7.93;;;13.90;99.90;;;;;;5111801;27;20040;-74
2023/09/22 07:12:36;;;;;;;10.70;7.40;;;13.70;99.90;;;;;;5106540;27;20051;-74
2023/09/22 07:15:03;;;;;;;12.77;9.57;;;13.60;99.90;;;;;;5099847;28;20040;-74
2023/09/22 07:17:29;;;;;;;11.98;9.00;;;13.70;99.90;;;;;;5081564;27;20144;-74
2023/09/22 07:19:54;;;;;;;11.43;8.82;;;13.60;99.90;;;;;;5081241;28;20221;-75
2023/09/22 07:22:20;;;;;;;11.27;8.32;;;13.60;99.90;;;;;;5094762;28;20047;-74
2023/09/22 07:24:46;;;;;;;11.15;8.23;;;13.50;99.90;;;;;;5093657;27;20054;-74
2023/09/22 07:27:12;;;;;;;9.27;6.68;;;13.70;99.90;;;;;;5097100;27;20046;-73
2023/09/22 07:29:38;;;;;;;9.98;7.70;;;13.80;99.90;;;;;;5110609;27;20058;-74
2023/09/22 07:32:04;;;;;;;8.52;6.55;;;13.80;99.90;;;;;;5089829;28;20122;-74
2023/09/22 07:34:29;;;;;;;7.55;5.78;;;13.60;99.90;;;;;;5096577;27;20035;-73
2023/09/22 07:36:55;;;;;;;10.77;6.93;;;13.60;99.90;;;;;;5108917;27;20039;-74
2023/09/22 07:39:21;;;;;;;10.32;6.28;;;13.60;99.90;;;;;;5097785;27;20039;-74
2023/09/22 07:41:47;;;;;;;7.70;5.85;;;13.50;99.90;;;;;;5082172;28;20081;-75
2023/09/22 07:44:14;;;;;;;8.57;6.40;;;13.50;99.90;;;;;;5100488;27;20154;-75
2023/09/22 07:46:41;;;;;;;7.65;5.93;;;13.50;99.90;;;;;;5109660;27;20055;-77
2023/09/22 07:49:07;;;;;;;7.45;5.85;;;13.70;99.90;;;;;;5093865;28;20065;-77
2023/09/22 07:51:33;;;;;;;8.23;5.80;;;13.60;99.90;;;;;;5108586;27;20039;-77
2023/09/22 07:53:59;;;;;;;8.52;6.93;;;13.70;99.90;;;;;;5107310;28;20031;-77
2023/09/22 07:56:32;;;;;;;7.93;5.47;;;13.60;99.90;;;;;;5104655;28;20089;-76
2023/09/22 07:58:59;;;;;;;7.55;5.38;;;13.70;99.90;;;;;;5102192;28;20079;-74
2023/09/22 08:01:26;;;;;;;10.00;6.78;;;13.60;99.90;;;;;;5077971;27;20392;-75
2023/09/22 08:03:52;;;;;;;9.00;6.70;;;13.70;99.90;;;;;;5124179;27;20051;-75
2023/09/22 08:06:17;;;;;;;7.28;5.85;;;13.60;99.90;;;;;;5110504;27;20448;-75
2023/09/22 08:08:44;;;;;;;10.18;6.70;;;13.70;99.90;;;;;;5100471;27;20552;-75
2023/09/22 08:11:09;;;;;;;8.40;5.80;;;13.70;99.90;;;;;;5108997;27;20071;-75
2023/09/22 08:13:35;;;;;;;6.63;5.43;;;13.70;99.90;;;;;;5099762;28;20130;-75
2023/09/22 08:16:06;;;;;;;7.38;5.85;;;13.70;99.90;;;;;;5094696;28;20051;-75
2023/09/22 08:18:37;;;;;;;7.55;5.82;;;13.80;99.90;;;;;;5075314;28;20115;-75
2023/09/22 08:21:04;;;;;;;6.25;4.97;;;13.70;99.90;;;;;;5109855;27;20815;-75
2023/09/22 08:23:30;;;;;;;7.40;5.88;;;13.90;99.90;;;;;;5093353;28;20051;-75
2023/09/22 08:25:56;;;;;;;7.15;4.85;;;13.90;99.90;;;;;;5106457;28;20032;-75
2023/09/22 08:28:23;;;;;;;5.53;4.55;;;14.00;99.90;;;;;;5104828;27;20477;-74
2023/09/22 08:30:49;;;;;;;6.05;4.13;;;14.10;99.90;;;;;;5090311;28;20032;-74
2023/09/22 08:33:15;;;;;;;;;;;14.20;99.90;;;;;;5112343;27;20073;-74
2023/09/22 08:35:48;;;;;;;4.38;3.75;;;14.00;99.90;;;;;;5107697;27;20003;-74
2023/09/22 08:38:14;;;;;;;4.50;3.53;;;14.10;99.90;;;;;;5091908;28;20070;-78
2023/09/22 08:40:40;;;;;;;;;;;14.10;99.90;;;;;;5116126;27;20051;-75
2023/09/22 08:43:08;;;;;;;4.70;4.15;;;14.10;99.90;;;;;;5111864;27;19922;-74
2023/09/22 08:45:36;;;;;;;5.63;4.63;;;14.00;99.90;;;;;;5103748;28;20486;-74
2023/09/22 08:48:01;;;;;;;3.83;3.47;;;14.20;99.90;;;;;;5100833;28;20130;-75
2023/09/22 08:50:27;;;;;;;5.15;3.90;;;14.10;99.90;;;;;;5087519;28;20126;-74
2023/09/22 08:52:53;;;;;;;4.22;3.70;;;14.10;99.90;;;;;;5093764;28;20032;-74
2023/09/22 08:55:21;;;;;;;4.18;3.60;;;14.20;99.90;;;;;;5091673;28;20081;-74
2023/09/22 08:57:48;;;;;;;3.92;3.50;;;14.00;99.90;;;;;;5106607;28;20127;-74
2023/09/22 09:00:27;;;;;;;5.97;5.15;;;14.20;99.90;;;;;;5119566;27;20039;-74
2023/09/22 09:02:56;;;;;;;6.75;4.75;;;14.20;99.90;;;;;;5110384;27;20126;-75
2023/09/22 09:05:29;;;;;;;5.35;4.18;;;14.40;99.90;;;;;;5116101;27;20370;-75
2023/09/22 09:08:13;;;;;;;5.05;4.43;;;14.50;99.90;;;;;;5103971;27;20047;-74
2023/09/22 09:10:40;;;;;;;6.30;4.47;;;14.60;99.90;;;;;;5104140;27;20047;-75
2023/09/22 09:13:07;;;;;;;4.40;4.00;;;14.70;99.90;;;;;;5101144;28;20048;-75
2023/09/22 09:15:43;;;;;;;5.53;4.38;;;14.80;99.90;;;;;;5096924;28;20478;-75
2023/09/22 09:18:16;;;;;;;4.47;4.03;;;14.80;99.90;;;;;;5104666;28;20035;-75
2023/09/22 09:20:43;;;;;;;5.00;3.80;;;14.70;99.90;;;;;;5106714;28;20055;-74
2023/09/22 09:23:20;;;;;;;4.90;3.50;;;14.80;99.90;;;;;;5101906;27;20394;-74
2023/09/22 09:25:54;;;;;;;3.80;2.85;;;14.80;99.90;;;;;;5090107;28;20797;-75
2023/09/22 09:28:20;;;;;;;3.92;2.90;;;14.80;99.90;;;;;;5100638;28;20046;-75
2023/09/22 09:30:52;;;;;;;3.20;2.90;;;14.80;99.90;;;;;;5104580;28;20630;-75
2023/09/22 09:33:22;;;;;;;4.45;3.08;;;14.90;99.90;;;;;;5084190;28;20040;-75
2023/09/22 09:35:49;;;;;;;4.13;2.95;;;15.00;99.90;;;;;;5087693;28;20047;-75
2023/09/22 09:38:17;;;;;;;3.58;2.78;;;15.00;99.90;;;;;;5088074;28;20046;-74
2023/09/22 09:40:43;;;;;;;3.22;2.80;;;15.00;99.90;;;;;;5111239;28;20048;-74
2023/09/22 09:43:14;;;;;;;4.07;2.80;;;15.10;99.90;;;;;;5104594;28;20042;-76
2023/09/22 09:45:45;;;;;;;3.78;3.00;;;15.10;99.90;;;;;;5104180;28;20355;-74
2023/09/22 09:48:17;;;;;;;2.83;2.53;;;15.00;99.90;;;;;;5103783;28;20048;-75
2023/09/22 09:50:44;;;;;;;3.05;2.75;;;15.00;99.90;;;;;;5096379;28;20047;-75
2023/09/22 09:53:35;;;;;;;2.45;2.22;;;14.90;99.90;;;;;;5117458;28;20043;-75
2023/09/22 09:56:03;;;;;;;2.53;2.30;;;14.80;99.90;;;;;;5120212;28;20452;-74
2023/09/22 09:58:34;;;;;;;3.47;2.60;;;14.70;99.90;;;;;;5109361;28;20096;-74
2023/09/22 10:01:05;;;;;;;3.60;2.33;;;14.70;99.90;;;;;;5086749;28;20064;-75
2023/09/22 10:03:32;;;;;;;2.65;2.00;;;14.70;99.90;;;;;;5107284;28;20778;-75
2023/09/22 10:05:58;;;;;;;2.25;1.90;;;14.60;99.90;;;;;;5089445;28;20067;-76
2023/09/22 10:08:26;;;;;;;1.90;1.70;;;14.70;99.90;;;;;;5105724;28;20045;-75
2023/09/22 10:11:05;;;;;;;1.73;1.38;;;14.90;99.90;;;;;;5100693;28;20040;-75
2023/09/22 10:13:33;;;;;;;1.80;1.50;;;15.00;99.90;;;;;;5101550;28;20093;-75
2023/09/22 10:16:01;;;;;;;2.17;1.33;;;15.10;99.90;;;;;;5102014;28;21174;-76
2023/09/22 10:18:45;;;;;;;1.83;1.20;;;15.20;99.90;;;;;;5107387;28;20035;-77
2023/09/22 10:21:30;;;;;;;1.80;1.17;;;15.30;99.90;;;;;;5117041;28;20088;-76
2023/09/22 10:24:19;;;;;;;2.08;1.30;;;15.50;99.90;;;;;;5111734;28;20512;-76
2023/09/22 10:26:54;;;;;;;1.80;1.30;;;15.80;99.90;;;;;;5102404;28;20887;-78
2023/09/22 10:29:41;;;;;;;2.20;1.50;;;16.10;99.90;;;;;;5084797;28;20032;-74
2023/09/22 10:32:15;;;;;;;2.08;1.42;;;16.50;99.90;;;;;;5107344;28;20475;-73
2023/09/22 10:34:50;;;;;;;2.13;1.42;;;16.70;99.90;;;;;;5115310;28;20044;-75
2023/09/22 10:37:39;;;;;;;2.33;1.40;;;16.80;99.90;;;;;;5117873;28;20055;-73
2023/09/22 10:40:23;;;;;;;1.80;1.25;;;17.00;99.90;;;;;;5106901;28;20150;-76
2023/09/22 10:42:51;;;;;;;1.70;1.27;;;17.20;99.90;;;;;;5101457;28;20039;-76
2023/09/22 10:45:25;;;;;;;2.70;1.10;;;17.20;99.90;;;;;;5108686;28;20043;-76
2023/09/22 10:47:52;;;;;;;1.52;1.08;;;17.10;99.90;;;;;;5107750;27;20039;-76
2023/09/22 10:50:26;;;;;;;1.60;1.10;;;16.90;99.90;;;;;;5110227;27;20160;-76
2023/09/22 10:52:57;;;;;;;1.13;0.95;;;16.60;99.90;;;;;;5110514;28;20039;-73
2023/09/22 10:55:31;;;;;;;1.70;0.98;;;16.50;99.90;;;;;;5098150;27;20039;-73
2023/09/22 10:57:58;;;;;;;1.50;1.10;;;16.50;99.90;;;;;;5110426;27;20074;-73
2023/09/22 11:00:25;;;;;;;1.80;1.10;;;16.70;99.90;;;;;;5113227;27;20122;-73
2023/09/22 11:02:51;;;;;;;2.03;1.25;;;16.70;99.90;;;;;;5115689;27;20072;-74
2023/09/22 11:05:17;;;;;;;;;;;16.60;99.90;;;;;;5115513;27;20055;-80
2023/09/22 11:07:43;;;;;;;1.10;1.00;;;16.50;99.90;;;;;;5105087;27;19942;-74
2023/09/22 11:10:17;;;;;;;1.08;0.90;;;16.50;99.90;;;;;;5087962;28;20398;-75
2023/09/22 11:12:50;;;;;;;1.00;0.90;;;16.60;99.90;;;;;;5099991;28;20056;-76
2023/09/22 11:15:16;;;;;;;1.98;1.27;;;16.60;99.90;;;;;;5105849;28;20802;-76
2023/09/22 11:17:46;;;;;;;;;;;16.70;99.90;;;;;;5109208;28;20064;-76
2023/09/22 11:20:34;;;;;;;1.55;1.00;;;16.90;99.90;;;;;;5085966;28;20639;-76
2023/09/22 11:23:00;;;;;;;1.80;0.90;;;17.40;99.90;;;;;;5093485;28;20044;-76
2023/09/22 11:25:25;;;;;;;;;;;17.70;92.70;;;;;;5112285;27;20412;-76
2023/09/22 11:27:52;;;;;;;1.55;1.00;;;18.10;93.50;;;;;;5116466;27;19942;-75
2023/09/22 11:30:25;;;;;;;1.33;1.20;;;18.10;28.30;;;;;;5094478;28;20035;-74
2023/09/22 11:32:51;;;;;;;2.20;1.35;;;17.90;1.00;;;;;;5106728;28;20044;-74
2023/09/22 11:35:41;;;;;;;1.67;1.20;;;17.80;1.00;;;;;;5087101;28;20097;-74
2023/09/22 11:38:27;;;;;;;1.08;0.90;;;17.50;1.00;;;;;;5102967;28;20132;-75
2023/09/22 11:41:10;;;;;;;1.15;1.00;;;17.20;1.00;;;;;;5112459;27;20039;-75
2023/09/22 11:43:52;;;;;;;1.75;1.20;;;17.20;14.50;;;;;;5076325;28;20067;-74
2023/09/22 11:46:28;;;;;;;2.22;1.30;;;17.10;4.50;;;;;;5077032;28;20131;-73
2023/09/22 11:49:05;;;;;;;1.05;0.98;;;17.40;14.20;;;;;;5101968;27;20118;-74
2023/09/22 11:51:52;;;;;;;1.40;1.20;;;17.90;12.30;;;;;;5100099;28;20477;-74
2023/09/22 11:54:26;;;;;;;1.70;1.10;;;18.20;1.00;;;;;;5109600;27;20035;-74
2023/09/22 11:56:58;;;;;;;1.00;0.95;;;18.40;1.00;;;;;;5080504;28;20044;-74
2023/09/22 11:59:34;;;;;;;0.93;0.93;;;18.10;99.90;;;;;;5111631;27;20439;-73
2023/09/22 12:02:01;;;;;;;0.77;0.70;;;17.90;1.00;;;;;;5111476;28;20121;-75
2023/09/22 12:04:27;;;;;;;0.88;0.70;;;17.70;1.00;;;;;;5110867;27;20039;-76
2023/09/22 12:06:53;;;;;;;;;;;17.40;1.00;;;;;;5113240;27;20490;-75
2023/09/22 12:09:19;;;;;;;0.60;0.60;;;17.20;1.00;;;;;;5093469;28;20263;-76
2023/09/22 12:11:47;;;;;;;1.48;0.80;;;17.10;73.40;;;;;;5111951;27;20517;-75
2023/09/22 12:14:13;;;;;;;1.00;0.75;;;17.00;90.60;;;;;;5118645;27;20051;-75
2023/09/22 12:16:39;;;;;;;;;;;16.80;95.40;;;;;;5113114;27;20188;-74
2023/09/22 12:19:05;;;;;;;1.02;0.90;;;16.70;99.90;;;;;;5128557;27;19919;-74
2023/09/22 12:21:31;;;;;;;;;;;16.60;99.90;;;;;;5089564;27;20571;-74
2023/09/22 12:23:57;;;;;;;1.45;1.10;;;16.50;99.90;;;;;;5108146;27;19919;-76
2023/09/22 12:26:23;;;;;;;;;;;16.50;99.90;;;;;;5114635;27;20402;-74
2023/09/22 12:28:49;;;;;;;1.85;1.17;;;16.60;99.90;;;;;;5117380;27;19926;-76
2023/09/22 12:31:15;;;;;;;;;;;16.60;99.90;;;;;;5116828;27;20043;-74
2023/09/22 12:33:41;;;;;;;1.10;1.00;;;16.80;99.90;;;;;;5106600;27;19927;-74
2023/09/22 12:36:08;;;;;;;;;;;17.00;99.90;;;;;;5119965;27;20077;-75
2023/09/22 12:38:35;;;;;;;;;;;17.00;99.90;;;;;;5107656;27;19919;-75
2023/09/22 12:41:01;;;;;;;1.17;1.08;;;17.00;99.90;;;;;;5094950;27;19920;-74
2023/09/22 12:43:27;;;;;;;;;;;16.90;99.90;;;;;;5097043;28;20047;-74
2023/09/22 12:45:53;;;;;;;1.20;1.08;;;16.80;99.90;;;;;;5116781;27;19922;-75
2023/09/22 12:48:18;;;;;;;1.48;1.00;;;16.70;99.90;;;;;;5120798;27;20104;-76
2023/09/22 12:50:52;;;;;;;;;;;16.70;99.90;;;;;;5105410;27;20042;-74
2023/09/22 12:53:18;;;;;;;1.55;1.00;;;16.70;99.90;;;;;;5102935;27;19935;-74
2023/09/22 12:55:43;;;;;;;;;;;16.60;99.90;;;;;;5106067;27;20054;-74
2023/09/22 12:58:09;;;;;;;1.27;0.70;;;16.60;99.90;;;;;;5119435;27;20332;-74
2023/09/22 13:00:42;;;;;;;;;;;16.50;99.90;;;;;;5085146;27;20532;-74